Terminal Aerodrome Forecast
Issued by NWS

Home | Current Version | Previous Version | Text Only | Print | Product List | Glossary On
Versions: 1 2 3 4 5 6 7 8 9 10 11 12 13 14 15 16 17 18 19 20 21
000
FTUS44 KCRP 212300
TAFALI
TAF
KALI 212334Z 2200/2224 08010KT P6SM FEW040 SCT180
     FM220900 04005KT P6SM SCT180
      TEMPO 2211/2213 2SM BR
     FM221500 08010KT P6SM SCT035
     FM221800 09012G18KT P6SM FEW040=

USA.gov is the U.S. government's official web portal to all federal, state and local government web resources and services.